Time;durP1;ratioP1;P1;durP2;ratioP2;P2;SDS_P1;SDS_P2;PMS_P1;PMS_P2;Temp;Humidity;BMP_temperature;BMP_pressure;BME280_temperature;BME280_humidity;BME280_pressure;Samples;Min_cycle;Max_cycle;Signal;HPM_P1;HPM_P2
2021/04/03 00:00:07;;;;;;;33.10;20.93;;;;;;;13.37;66.22;94730.88;5086050;28;20454;-77
2021/04/03 00:02:34;;;;;;;34.33;21.87;;;;;;;13.49;65.11;94743.66;5088504;28;20441;-69
2021/04/03 00:05:01;;;;;;;33.53;21.63;;;;;;;13.61;65.52;94733.56;5085402;28;20469;-71
2021/04/03 00:07:27;;;;;;;34.10;22.27;;;;;;;13.44;65.93;94722.66;5087442;28;20537;-77
2021/04/03 00:09:54;;;;;;;33.13;22.20;;;;;;;13.55;65.51;94724.13;5085690;28;20485;-69
2021/04/03 00:12:20;;;;;;;36.47;23.03;;;;;;;13.49;65.74;94728.66;5086533;28;20445;-70
2021/04/03 00:14:47;;;;;;;32.83;22.50;;;;;;;13.44;66.26;94726.06;5086355;28;20463;-70
2021/04/03 00:17:14;;;;;;;33.73;21.60;;;;;;;13.31;66.73;94718.03;5085353;28;20441;-71
2021/04/03 00:19:40;;;;;;;29.63;21.37;;;;;;;13.28;67.08;94710.69;5087687;28;20506;-69
2021/04/03 00:22:06;;;;;;;30.17;21.80;;;;;;;13.35;66.44;94713.78;5084210;28;20448;-71
2021/04/03 00:24:33;;;;;;;28.27;20.40;;;;;;;13.48;66.35;94715.78;5088184;28;20485;-73
2021/04/03 00:27:00;;;;;;;31.47;21.33;;;;;;;13.33;66.93;94711.44;5082763;28;20448;-74
2021/04/03 00:29:26;;;;;;;28.80;21.03;;;;;;;13.36;67.05;94715.38;5088063;28;20997;-68
2021/04/03 00:31:52;;;;;;;24.27;19.37;;;;;;;13.25;67.25;94719.16;5083202;28;20540;-74
2021/04/03 00:34:19;;;;;;;22.33;18.07;;;;;;;13.35;66.51;94713.78;5088419;28;20461;-71
2021/04/03 00:36:45;;;;;;;26.93;19.13;;;;;;;13.30;66.24;94705.94;5082438;28;20464;-71
2021/04/03 00:39:11;;;;;;;27.33;18.63;;;;;;;13.47;65.72;94701.03;5088568;28;20460;-74
2021/04/03 00:41:38;;;;;;;23.20;17.93;;;;;;;13.28;66.14;94702.78;5083131;28;20887;-72
2021/04/03 00:44:07;;;;;;;21.63;17.23;;;;;;;13.27;65.81;94701.22;5088585;28;20476;-75
2021/04/03 00:46:34;;;;;;;25.27;18.50;;;;;;;13.38;65.73;94703.50;5082835;28;20805;-76
2021/04/03 00:49:04;;;;;;;23.93;17.70;;;;;;;13.42;65.94;94706.34;5088268;28;20553;-68
2021/04/03 00:51:31;;;;;;;24.47;18.60;;;;;;;13.37;65.49;94703.78;5074895;28;20995;-75
2021/04/03 00:53:58;;;;;;;26.67;18.63;;;;;;;13.40;65.64;94709.25;5070796;28;20434;-72
2021/04/03 00:56:26;;;;;;;24.50;19.10;;;;;;;13.27;65.81;94703.84;5080676;28;20441;-74
2021/04/03 00:58:54;;;;;;;25.07;18.87;;;;;;;13.24;66.47;94702.56;5088955;28;20502;-71
2021/04/03 01:01:22;;;;;;;23.10;18.87;;;;;;;13.25;66.39;94703.34;5080420;28;20986;-76
2021/04/03 01:03:50;;;;;;;27.30;19.27;;;;;;;12.99;66.99;94695.63;5088510;28;20444;-73
2021/04/03 01:06:17;;;;;;;26.20;19.63;;;;;;;13.13;66.75;94707.13;5079298;28;20538;-74
2021/04/03 01:08:44;;;;;;;26.53;19.50;;;;;;;13.06;66.25;94690.84;5089898;28;20477;-69
2021/04/03 01:11:11;;;;;;;26.37;19.30;;;;;;;13.18;66.03;94699.19;5079822;28;20449;-75
2021/04/03 01:13:42;;;;;;;22.87;17.90;;;;;;;13.21;65.76;94703.88;5090349;28;20475;-66
2021/04/03 01:16:19;;;;;;;26.07;17.53;;;;;;;13.02;66.18;94710.91;5079031;28;20833;-76
2021/04/03 01:19:23;;;;;;;24.33;18.43;;;;;;;13.26;65.20;94704.91;5089929;28;20452;-70
2021/04/03 01:22:29;;;;;;;24.10;17.20;;;;;;;13.08;65.52;94701.88;5081619;28;20433;-73
2021/04/03 01:25:07;;;;;;;26.57;18.23;;;;;;;13.17;65.37;94696.84;5082337;28;20489;-72
2021/04/03 01:27:43;;;;;;;25.00;19.60;;;;;;;12.50;67.55;94687.00;5085417;28;20456;-71
2021/04/03 01:30:15;;;;;;;28.10;19.73;;;;;;;12.35;68.36;94689.72;5081976;28;20461;-73
2021/04/03 01:33:02;;;;;;;24.80;19.07;;;;;;;12.11;69.25;94704.56;5087475;28;20480;-68
2021/04/03 01:35:35;;;;;;;26.83;18.53;;;;;;;12.42;68.58;94692.84;5079492;28;20446;-72
2021/04/03 01:38:08;;;;;;;26.33;19.23;;;;;;;12.60;67.32;94686.16;5091345;28;20456;-72
2021/04/03 01:40:39;;;;;;;25.67;19.27;;;;;;;12.61;67.29;94688.53;5078339;28;20907;-74
2021/04/03 01:43:14;;;;;;;26.17;18.90;;;;;;;12.66;67.14;94675.38;5050511;28;20520;-74
2021/04/03 01:45:42;;;;;;;24.17;19.03;;;;;;;12.70;66.53;94680.84;5072636;28;20477;-75
2021/04/03 01:48:16;;;;;;;29.40;19.33;;;;;;;12.70;66.18;94676.38;5091364;28;20532;-74
2021/04/03 01:50:44;;;;;;;24.33;19.40;;;;;;;12.74;66.29;94682.66;5076518;28;20438;-69
2021/04/03 01:53:18;;;;;;;27.53;19.00;;;;;;;12.60;66.28;94676.44;5090433;28;20972;-73
2021/04/03 01:55:51;;;;;;;24.40;19.03;;;;;;;12.61;66.09;94677.25;5078168;28;20445;-73
2021/04/03 01:58:19;;;;;;;26.33;19.03;;;;;;;12.66;66.30;94680.63;5089539;28;20824;-74
2021/04/03 02:00:46;;;;;;;27.50;19.73;;;;;;;12.75;66.07;94672.94;5077794;28;20572;-72
2021/04/03 02:03:15;;;;;;;27.10;20.67;;;;;;;12.93;65.50;94665.19;5090481;28;20460;-75
2021/04/03 02:05:45;;;;;;;26.53;20.30;;;;;;;12.85;65.35;94657.84;5075948;28;20486;-73
2021/04/03 02:08:21;;;;;;;26.63;20.30;;;;;;;12.80;65.59;94657.91;5089156;28;20437;-73
2021/04/03 02:11:11;;;;;;;24.20;20.53;;;;;;;12.78;65.78;94667.91;5079329;28;20449;-69
2021/04/03 02:13:40;;;;;;;26.80;20.43;;;;;;;12.77;65.89;94662.94;5088058;28;20449;-70
2021/04/03 02:16:08;;;;;;;28.13;21.20;;;;;;;12.75;65.86;94660.56;5080763;28;20445;-71
2021/04/03 02:18:40;;;;;;;27.17;20.80;;;;;;;12.74;65.91;94655.56;5068716;28;20468;-67
2021/04/03 02:21:09;;;;;;;29.47;21.07;;;;;;;12.66;65.93;94653.53;5077039;28;20552;-68
2021/04/03 02:23:40;;;;;;;30.43;21.53;;;;;;;12.54;66.64;94656.50;5088775;28;20433;-70
2021/04/03 02:26:08;;;;;;;25.50;20.47;;;;;;;12.32;67.56;94653.47;5078594;28;20453;-71
2021/04/03 02:28:36;;;;;;;26.87;19.93;;;;;;;12.32;67.36;94658.72;5090010;28;20437;-75
2021/04/03 02:31:03;;;;;;;27.23;21.33;;;;;;;12.37;66.90;94656.06;5078337;28;20441;-72
2021/04/03 02:33:31;;;;;;;28.97;21.50;;;;;;;12.44;66.83;94656.56;5090469;28;20531;-72
2021/04/03 02:35:58;;;;;;;28.17;20.47;;;;;;;12.41;67.08;94657.09;5077464;28;20452;-70
2021/04/03 02:38:24;;;;;;;27.00;20.80;;;;;;;12.55;66.53;94649.41;5093909;28;20430;-72
2021/04/03 02:41:11;;;;;;;30.13;21.00;;;;;;;12.64;66.11;94645.94;5082878;28;20441;-75
2021/04/03 02:43:52;;;;;;;29.53;22.93;;;;;;;12.57;66.59;94645.44;5092454;28;20428;-72
2021/04/03 02:46:32;;;;;;;30.13;23.87;;;;;;;12.48;66.70;94652.31;5082825;28;20433;-67
2021/04/03 02:49:11;;;;;;;30.93;22.23;;;;;;;12.15;68.06;94640.69;5091183;28;20511;-70
2021/04/03 02:51:46;;;;;;;32.43;23.50;;;;;;;12.31;67.74;94641.41;5079258;28;20503;-71
2021/04/03 02:54:18;;;;;;;30.57;23.13;;;;;;;12.18;67.51;94639.38;5076486;28;20453;-68
2021/04/03 02:56:48;;;;;;;32.00;23.10;;;;;;;12.22;67.91;94635.16;5083660;28;20449;-71
2021/04/03 02:59:20;;;;;;;30.13;21.43;;;;;;;12.23;67.84;94628.84;5090852;28;20537;-72
2021/04/03 03:01:51;;;;;;;29.23;21.63;;;;;;;12.36;66.79;94644.00;5084654;28;20437;-76
2021/04/03 03:04:19;;;;;;;31.20;21.87;;;;;;;12.40;67.49;94639.78;5089915;28;20474;-73
2021/04/03 03:06:47;;;;;;;27.90;21.07;;;;;;;12.06;68.02;94638.94;5082953;28;20441;-69
2021/04/03 03:09:17;;;;;;;28.83;20.27;;;;;;;11.98;68.17;94636.84;5088710;28;20477;-78
2021/04/03 03:11:49;;;;;;;30.87;21.07;;;;;;;12.22;67.75;94629.91;5083432;28;20847;-72
2021/04/03 03:14:18;;;;;;;27.97;20.27;;;;;;;12.19;67.17;94633.06;5088616;28;20434;-75
2021/04/03 03:16:48;;;;;;;27.67;20.57;;;;;;;12.15;67.27;94632.06;5084127;28;20503;-71
2021/04/03 03:19:17;;;;;;;27.43;19.93;;;;;;;12.18;67.24;94627.03;5088371;28;20460;-73
2021/04/03 03:21:47;;;;;;;25.07;20.17;;;;;;;12.32;66.10;94621.19;5082552;28;20510;-73
2021/04/03 03:24:17;;;;;;;27.27;21.47;;;;;;;12.10;66.85;94614.47;5089588;28;20474;-73
2021/04/03 03:26:46;;;;;;;49.47;39.07;;;;;;;12.07;67.12;94603.72;5083288;28;20970;-77
2021/04/03 03:29:13;;;;;;;35.53;25.13;;;;;;;11.98;66.65;94600.09;5089427;28;20438;-72
2021/04/03 03:31:42;;;;;;;30.47;21.83;;;;;;;12.02;66.94;94606.38;5085415;28;20524;-77
2021/04/03 03:34:13;;;;;;;29.50;21.77;;;;;;;12.05;66.53;94618.97;5082766;28;20536;-73
2021/04/03 03:36:46;;;;;;;28.40;21.40;;;;;;;10.83;71.67;94615.09;5082673;28;20502;-79
2021/04/03 03:39:13;;;;;;;26.90;20.70;;;;;;;11.31;70.09;94615.53;5088670;28;20442;-73
2021/04/03 03:41:41;;;;;;;27.57;21.40;;;;;;;11.39;69.84;94622.84;5081340;28;20448;-71
2021/04/03 03:44:10;;;;;;;36.07;22.07;;;;;;;11.28;69.78;94622.09;5088228;28;20838;-73
2021/04/03 03:46:37;;;;;;;28.57;21.30;;;;;;;11.38;69.44;94621.28;5082686;28;20452;-72
2021/04/03 03:49:05;;;;;;;27.80;20.53;;;;;;;11.24;69.18;94627.09;5088782;28;20502;-73
2021/04/03 03:51:33;;;;;;;33.20;22.87;;;;;;;10.96;69.57;94625.03;5083627;28;20981;-72
2021/04/03 03:54:09;;;;;;;32.27;24.20;;;;;;;11.04;69.54;94623.69;5088018;28;20460;-74
2021/04/03 03:56:36;;;;;;;33.43;23.10;;;;;;;11.24;69.22;94621.84;5083545;28;20481;-69
2021/04/03 03:59:03;;;;;;;31.77;22.13;;;;;;;11.37;68.24;94622.34;5088472;28;20460;-71
2021/04/03 04:01:31;;;;;;;27.67;19.97;;;;;;;11.35;67.65;94627.06;5089626;28;20459;-74
2021/04/03 04:03:59;;;;;;;32.00;23.20;;;;;;;11.33;67.51;94629.19;5055834;28;21560;-75
2021/04/03 04:06:26;;;;;;;30.70;23.60;;;;;;;11.25;68.08;94635.75;5082083;28;20464;-73
2021/04/03 04:08:54;;;;;;;38.77;27.57;;;;;;;11.33;68.30;94644.91;5089242;28;20492;-74
2021/04/03 04:11:22;;;;;;;49.20;32.47;;;;;;;11.30;68.86;94630.47;5081908;28;20445;-75
2021/04/03 04:13:57;;;;;;;49.00;33.57;;;;;;;11.22;68.68;94634.44;5089771;28;20488;-73
2021/04/03 04:16:32;;;;;;;52.03;34.77;;;;;;;11.58;67.07;94636.97;5077847;28;20441;-74
2021/04/03 04:19:01;;;;;;;49.00;35.00;;;;;;;11.61;67.46;94637.22;5079133;28;20449;-72
2021/04/03 04:21:29;;;;;;;48.17;32.50;;;;;;;11.52;67.29;94648.53;5082110;28;20460;-72
2021/04/03 04:23:56;;;;;;;35.27;24.33;;;;;;;11.62;66.63;94638.00;5088711;28;20454;-75
2021/04/03 04:26:24;;;;;;;67.97;23.53;;;;;;;11.41;66.64;94639.91;5081277;28;20449;-72
2021/04/03 04:28:54;;;;;;;83.53;25.33;;;;;;;11.21;67.11;94653.06;5090522;28;20441;-73
2021/04/03 04:31:26;;;;;;;289.60;29.47;;;;;;;11.02;67.38;94644.94;5081477;28;20448;-70
2021/04/03 04:34:08;;;;;;;155.77;26.60;;;;;;;10.81;67.76;94642.59;5087337;28;20545;-72
2021/04/03 04:36:37;;;;;;;31.73;22.27;;;;;;;10.77;67.74;94647.56;5081628;28;20484;-76
2021/04/03 04:39:08;;;;;;;38.03;23.67;;;;;;;10.99;67.69;94650.72;5088097;28;20449;-78
2021/04/03 04:41:39;;;;;;;33.87;23.37;;;;;;;10.98;67.70;94638.66;5079555;28;20514;-73
2021/04/03 04:44:06;;;;;;;30.93;22.47;;;;;;;10.96;67.76;94646.00;5074453;28;20445;-68
2021/04/03 04:46:32;;;;;;;32.10;22.93;;;;;;;11.07;67.60;94638.91;5087549;28;20963;-71
2021/04/03 04:49:00;;;;;;;31.57;22.23;;;;;;;11.27;67.55;94645.97;5093846;28;20449;-71
2021/04/03 04:51:30;;;;;;;37.80;23.77;;;;;;;11.37;66.67;94645.97;5075868;28;20818;-72
2021/04/03 04:54:13;;;;;;;30.33;22.63;;;;;;;11.30;67.91;94656.72;5072350;28;20549;-71
2021/04/03 04:56:45;;;;;;;31.57;23.20;;;;;;;11.19;67.95;94653.31;5081168;28;20469;-74
2021/04/03 04:59:14;;;;;;;31.97;23.53;;;;;;;11.19;67.45;94647.28;5087761;28;20458;-72
2021/04/03 05:01:46;;;;;;;33.17;22.87;;;;;;;11.34;67.30;94651.72;5080021;28;20437;-70
2021/04/03 05:04:14;;;;;;;32.90;24.43;;;;;;;11.39;67.54;94655.13;5087880;28;20450;-72
2021/04/03 05:06:41;;;;;;;31.87;24.00;;;;;;;11.36;67.54;94649.63;5082538;28;20828;-70
2021/04/03 05:09:08;;;;;;;34.23;23.33;;;;;;;11.52;67.06;94643.28;5087951;28;20481;-71
2021/04/03 05:11:36;;;;;;;32.20;23.87;;;;;;;11.51;67.72;94647.75;5082366;28;20453;-73
2021/04/03 05:14:02;;;;;;;33.77;24.17;;;;;;;11.37;67.84;94653.84;5088176;28;20449;-72
2021/04/03 05:16:29;;;;;;;36.17;25.63;;;;;;;11.34;68.47;94646.47;5083399;28;20445;-76
2021/04/03 05:18:56;;;;;;;33.57;23.63;;;;;;;11.54;67.41;94646.44;5090240;28;20468;-73
2021/04/03 05:21:23;;;;;;;35.20;24.77;;;;;;;11.45;68.25;94633.06;5080858;28;20445;-71
2021/04/03 05:23:50;;;;;;;33.37;22.43;;;;;;;11.81;69.10;94639.00;5089758;28;20457;-69
2021/04/03 05:26:16;;;;;;;36.00;24.60;;;;;;;11.88;67.95;94631.63;5079752;28;20484;-72
2021/04/03 05:28:44;;;;;;;36.07;24.20;;;;;;;11.69;67.00;94618.34;5088991;28;20883;-75
2021/04/03 05:31:11;;;;;;;34.90;23.23;;;;;;;11.90;66.94;94637.41;5081739;28;20896;-71
2021/04/03 05:33:38;;;;;;;31.90;23.27;;;;;;;11.78;66.79;94647.44;5081248;28;20535;-75
2021/04/03 05:36:04;;;;;;;32.03;24.43;;;;;;;11.78;67.29;94648.22;5079771;28;20535;-72
2021/04/03 05:38:31;;;;;;;33.87;24.07;;;;;;;11.83;67.07;94644.78;5092813;28;20433;-73
2021/04/03 05:40:57;;;;;;;36.57;23.13;;;;;;;11.94;67.44;94648.94;5080446;28;20818;-71
2021/04/03 05:43:25;;;;;;;31.47;22.20;;;;;;;11.91;67.11;94637.16;5089987;28;20478;-78
2021/04/03 05:45:56;;;;;;;29.10;22.33;;;;;;;12.02;66.55;94649.16;5076536;28;20486;-72
2021/04/03 05:48:23;;;;;;;31.20;22.77;;;;;;;12.07;66.51;94640.47;5090694;28;20484;-70
2021/04/03 05:50:54;;;;;;;39.00;27.07;;;;;;;12.15;66.12;94642.56;5077739;28;20473;-69
2021/04/03 05:53:22;;;;;;;28.63;22.70;;;;;;;12.30;67.01;94645.06;5090807;28;20441;-71
2021/04/03 05:55:56;;;;;;;29.77;22.47;;;;;;;12.33;66.64;94638.50;5077476;28;20484;-69
2021/04/03 05:58:23;;;;;;;27.93;20.70;;;;;;;12.49;66.11;94642.59;5091321;28;20559;-67
2021/04/03 06:00:53;;;;;;;26.97;20.93;;;;;;;12.55;65.35;94641.53;5077910;28;20931;-70
2021/04/03 06:03:21;;;;;;;29.60;21.13;;;;;;;12.45;66.41;94645.00;5090595;28;20469;-73
2021/04/03 06:05:50;;;;;;;28.93;20.47;;;;;;;12.64;66.35;94640.69;5077598;28;20508;-78
2021/04/03 06:08:16;;;;;;;25.33;19.53;;;;;;;12.58;65.97;94636.50;5085668;28;20487;-74
2021/04/03 06:11:10;;;;;;;26.63;20.20;;;;;;;12.73;65.24;94649.53;5070723;28;20461;-72
2021/04/03 06:13:38;;;;;;;26.47;20.23;;;;;;;12.87;65.38;94636.53;5077177;28;20832;-77
2021/04/03 06:16:26;;;;;;;27.73;20.17;;;;;;;13.29;68.31;94649.09;5079578;28;20975;-76
2021/04/03 06:19:24;;;;;;;25.63;19.13;;;;;;;13.23;67.73;94647.59;5079116;28;20581;-73
2021/04/03 06:21:55;;;;;;;27.13;20.60;;;;;;;13.39;66.75;94646.38;5078059;28;20449;-73
2021/04/03 06:24:23;;;;;;;282.03;243.87;;;;;;;13.45;67.17;94640.78;5077495;28;20485;-74
2021/04/03 06:27:07;;;;;;;48.53;40.17;;;;;;;13.75;65.67;94642.31;5078505;28;20445;-75
2021/04/03 06:29:49;;;;;;;27.40;19.73;;;;;;;13.94;65.09;94641.28;5063473;28;20442;-72
2021/04/03 06:32:18;;;;;;;99.67;65.83;;;;;;;14.08;64.22;94641.38;5088217;28;20445;-76
2021/04/03 06:34:49;;;;;;;33.93;25.30;;;;;;;13.91;63.41;94639.22;5076819;28;20978;-72
2021/04/03 06:37:34;;;;;;;54.83;42.07;;;;;;;13.91;64.87;94635.78;5072142;28;20444;-73
2021/04/03 06:40:04;;;;;;;26.07;20.43;;;;;;;13.93;63.84;94642.34;5060960;28;20448;-73
2021/04/03 06:42:43;;;;;;;27.00;20.80;;;;;;;13.96;63.99;94635.72;5059691;28;20457;-76
2021/04/03 06:45:21;;;;;;;27.47;20.93;;;;;;;14.01;63.66;94631.19;5080659;28;20489;-77
2021/04/03 06:47:49;;;;;;;24.87;19.47;;;;;;;14.07;63.17;94630.06;5078921;28;20438;-72
2021/04/03 06:50:18;;;;;;;27.13;20.50;;;;;;;14.07;63.29;94626.63;5069091;28;20459;-71
2021/04/03 06:52:46;;;;;;;26.77;20.97;;;;;;;14.10;63.96;94626.09;5085047;28;20456;-70
2021/04/03 06:55:16;;;;;;;28.37;20.67;;;;;;;14.23;63.10;94630.66;5088040;28;20507;-73
2021/04/03 06:57:43;;;;;;;25.30;19.53;;;;;;;14.07;63.21;94621.38;5082472;28;20541;-72
2021/04/03 07:00:12;;;;;;;28.20;19.87;;;;;;;13.92;62.52;94629.47;5088776;28;20441;-76
2021/04/03 07:02:59;;;;;;;25.47;19.60;;;;;;;14.03;63.86;94620.38;5070237;28;20477;-72
2021/04/03 07:05:33;;;;;;;29.57;20.07;;;;;;;14.00;64.57;94620.94;5089479;28;20476;-74
2021/04/03 07:08:04;;;;;;;30.50;20.90;;;;;;;14.03;64.20;94617.75;5089913;28;20983;-71
2021/04/03 07:10:33;;;;;;;27.73;19.97;;;;;;;14.11;64.04;94607.34;5089272;28;20931;-74
2021/04/03 07:12:59;;;;;;;157.73;111.67;;;;;;;14.25;63.52;94607.41;5077416;28;20438;-77
2021/04/03 07:15:28;;;;;;;90.43;72.90;;;;;;;14.52;62.85;94607.63;5069732;28;20532;-73
2021/04/03 07:17:55;;;;;;;34.40;24.27;;;;;;;14.57;62.55;94610.16;5069910;28;20434;-77
2021/04/03 07:20:30;;;;;;;28.40;21.17;;;;;;;14.75;62.24;94606.72;5069077;28;20438;-69
2021/04/03 07:23:00;;;;;;;26.47;20.03;;;;;;;14.70;61.78;94603.38;5069350;28;20449;-69
2021/04/03 07:25:31;;;;;;;25.33;18.63;;;;;;;14.64;61.77;94610.59;5071085;28;20506;-70
2021/04/03 07:28:02;;;;;;;26.30;19.73;;;;;;;14.66;61.30;94608.44;5065875;28;20450;-67
2021/04/03 07:30:35;;;;;;;68.90;49.13;;;;;;;14.77;62.39;94614.34;5092288;28;20540;-70
2021/04/03 07:33:08;;;;;;;38.40;30.10;;;;;;;14.78;61.76;94621.97;5093368;28;20531;-70
2021/04/03 07:35:47;;;;;;;31.53;24.40;;;;;;;14.71;62.06;94616.28;5091890;28;20437;-69
2021/04/03 07:38:19;;;;;;;28.17;19.17;;;;;;;14.97;61.57;94598.19;5089713;28;20454;-71
2021/04/03 07:40:51;;;;;;;28.13;21.20;;;;;;;14.89;61.66;94604.16;5079834;28;20563;-70
2021/04/03 07:43:33;;;;;;;26.37;20.83;;;;;;;14.75;60.34;94600.66;5084072;28;20837;-70
2021/04/03 07:46:19;;;;;;;31.33;22.90;;;;;;;14.88;60.83;94600.72;5079566;28;20854;-69
2021/04/03 07:48:49;;;;;;;30.10;22.77;;;;;;;15.04;60.09;94598.59;5053598;28;20458;-72
2021/04/03 07:51:24;;;;;;;27.27;22.17;;;;;;;14.97;60.03;94588.44;5082277;28;20511;-70
2021/04/03 07:53:57;;;;;;;27.83;19.63;;;;;;;15.11;60.86;94594.50;5079689;28;21029;-70
2021/04/03 07:56:25;;;;;;;23.63;19.03;;;;;;;15.11;59.98;94601.63;5087297;28;20457;-68
2021/04/03 07:58:58;;;;;;;23.23;18.43;;;;;;;15.29;59.34;94579.66;5091610;28;20444;-70
2021/04/03 08:01:45;;;;;;;22.00;17.67;;;;;;;15.44;58.57;94586.59;5082440;28;20469;-68
2021/04/03 08:04:12;;;;;;;25.97;18.90;;;;;;;15.59;58.62;94594.19;5073106;28;21003;-74
2021/04/03 08:06:42;;;;;;;26.57;18.07;;;;;;;15.83;57.38;94573.66;5071012;28;20490;-68
2021/04/03 08:09:17;;;;;;;25.60;17.73;;;;;;;15.80;57.83;94576.91;5071636;28;20991;-70
2021/04/03 08:11:47;;;;;;;25.23;19.17;;;;;;;15.90;57.97;94584.59;5070621;28;21076;-68
2021/04/03 08:14:16;;;;;;;23.10;17.87;;;;;;;15.80;57.52;94568.97;5055439;28;20490;-68
2021/04/03 08:16:44;;;;;;;17.93;15.83;;;;;;;15.81;58.64;94581.09;5051243;28;20465;-73
2021/04/03 08:19:11;;;;;;;36.63;29.30;;;;;;;15.99;57.20;94572.25;5051713;28;20797;-75
2021/04/03 08:21:46;;;;;;;78.00;59.93;;;;;;;16.14;57.07;94585.16;5051332;28;20796;-73
2021/04/03 08:24:14;;;;;;;16.33;14.03;;;;;;;16.06;55.90;94593.78;5051364;28;20525;-71
2021/04/03 08:26:42;;;;;;;16.37;14.43;;;;;;;15.41;56.35;94566.03;5060048;28;20470;-79
2021/04/03 08:29:25;;;;;;;19.30;14.87;;;;;;;15.68;57.05;94555.47;5077285;28;20500;-72
2021/04/03 08:31:54;;;;;;;19.23;14.67;;;;;;;16.14;56.97;94564.00;5059544;28;20475;-69
2021/04/03 08:34:22;;;;;;;18.57;14.27;;;;;;;16.44;56.68;94558.03;5064835;28;20534;-67
2021/04/03 08:36:49;;;;;;;20.37;14.13;;;;;;;16.52;56.68;94570.59;5070878;28;20446;-71
2021/04/03 08:39:19;;;;;;;18.47;13.77;;;;;;;16.79;55.58;94564.38;5070417;28;20446;-69
2021/04/03 08:41:49;;;;;;;18.63;13.60;;;;;;;16.94;55.93;94548.94;5070048;28;20422;-70
2021/04/03 08:44:18;;;;;;;17.93;12.97;;;;;;;17.18;54.93;94552.03;5071159;28;20521;-70
2021/04/03 08:46:47;;;;;;;17.13;13.83;;;;;;;17.38;54.41;94555.22;5071531;28;20453;-72
2021/04/03 08:49:24;;;;;;;18.83;13.27;;;;;;;17.23;53.45;94536.00;5090038;28;20468;-74
2021/04/03 08:51:52;;;;;;;18.60;14.27;;;;;;;17.46;54.44;94549.19;5077018;28;20836;-69
2021/04/03 08:54:19;;;;;;;14.97;12.57;;;;;;;17.49;53.25;94530.84;5076220;28;20543;-71
2021/04/03 08:56:46;;;;;;;20.80;14.13;;;;;;;17.70;54.49;94528.41;5090015;28;20561;-69
2021/04/03 08:59:15;;;;;;;19.73;13.83;;;;;;;17.68;54.45;94517.34;5090708;28;20448;-72
2021/04/03 09:01:48;;;;;;;16.60;13.20;;;;;;;17.64;53.29;94527.78;5062387;28;20446;-70
2021/04/03 09:04:15;;;;;;;17.67;13.60;;;;;;;17.85;52.63;94515.50;5049356;28;20446;-70
2021/04/03 09:06:50;;;;;;;14.77;13.20;;;;;;;17.95;51.85;94509.13;5049701;28;20485;-72
2021/04/03 09:09:19;;;;;;;17.80;13.63;;;;;;;18.09;52.17;94512.41;5050581;28;20478;-68
2021/04/03 09:11:51;;;;;;;19.20;13.97;;;;;;;18.13;51.44;94513.34;5050655;28;20853;-72
2021/04/03 09:14:35;;;;;;;22.77;15.63;;;;;;;18.36;50.99;94496.19;5049753;28;20435;-68
2021/04/03 09:17:04;;;;;;;18.70;13.33;;;;;;;18.25;52.36;94504.78;5050258;28;20437;-75
2021/04/03 09:19:35;;;;;;;15.30;12.30;;;;;;;18.26;50.98;94507.13;5050604;28;20439;-69
2021/04/03 09:22:04;;;;;;;18.60;14.23;;;;;;;18.43;51.00;94488.56;5049157;28;20984;-70
2021/04/03 09:24:39;;;;;;;23.20;15.47;;;;;;;18.50;51.31;94480.13;5050002;28;20514;-68
2021/04/03 09:27:18;;;;;;;16.87;13.83;;;;;;;18.60;50.94;94485.91;5049308;28;21063;-70
2021/04/03 09:29:47;;;;;;;18.33;12.67;;;;;;;18.92;49.85;94492.56;5056359;28;20438;-73
2021/04/03 09:32:16;;;;;;;17.00;13.37;;;;;;;19.23;49.32;94485.88;5070506;28;20438;-70
2021/04/03 09:34:42;;;;;;;15.57;13.83;;;;;;;19.43;48.31;94480.97;5065400;28;20438;-71
2021/04/03 09:37:20;;;;;;;16.17;13.50;;;;;;;19.60;48.73;94481.66;5050167;28;20533;-70
2021/04/03 09:39:53;;;;;;;16.57;13.77;;;;;;;19.88;48.18;94469.47;5050446;28;20453;-71
2021/04/03 09:42:26;;;;;;;18.87;13.97;;;;;;;20.02;47.18;94471.84;5050753;28;20448;-72
2021/04/03 09:44:59;;;;;;;18.57;13.57;;;;;;;20.17;47.01;94463.31;5049926;28;20471;-73
2021/04/03 09:47:27;;;;;;;18.03;13.30;;;;;;;20.40;46.32;94461.88;5049708;28;20516;-70
2021/04/03 09:49:53;;;;;;;18.93;13.70;;;;;;;20.71;46.50;94459.53;5049666;28;20434;-69
2021/04/03 09:52:20;;;;;;;18.17;13.63;;;;;;;20.60;45.94;94452.31;5050178;28;20822;-70
2021/04/03 09:54:48;;;;;;;16.63;13.00;;;;;;;20.86;44.90;94453.59;5050101;28;20230;-70
2021/04/03 09:57:15;;;;;;;15.40;12.83;;;;;;;20.88;44.85;94438.06;5050153;28;20287;-72
2021/04/03 09:59:42;;;;;;;17.13;13.70;;;;;;;20.85;45.54;94433.41;5050177;28;20818;-71
2021/04/03 10:02:11;;;;;;;20.53;13.87;;;;;;;21.25;44.65;94430.13;5049643;28;20201;-71
2021/04/03 10:04:37;;;;;;;17.37;12.27;;;;;;;21.18;44.75;94423.47;5049999;28;20872;-71
2021/04/03 10:07:04;;;;;;;20.20;12.50;;;;;;;21.43;45.12;94424.25;5049947;28;20216;-71
2021/04/03 10:09:31;;;;;;;15.53;12.70;;;;;;;21.62;43.73;94415.69;5049753;28;20228;-70
2021/04/03 10:11:58;;;;;;;20.57;12.57;;;;;;;21.64;43.73;94414.22;5049279;28;20219;-70
2021/04/03 10:14:25;;;;;;;14.30;12.57;;;;;;;21.41;43.83;94415.03;5050108;28;20189;-67
2021/04/03 10:17:01;;;;;;;16.30;12.03;;;;;;;21.58;43.13;94396.13;5049475;28;20192;-69
2021/04/03 10:19:28;;;;;;;19.07;12.97;;;;;;;21.58;43.58;94393.47;5049677;28;20193;-69
2021/04/03 10:21:54;;;;;;;19.53;13.20;;;;;;;21.12;43.67;94408.81;5049434;28;20338;-72
2021/04/03 10:24:21;;;;;;;19.07;12.70;;;;;;;20.53;44.52;94412.16;5048952;28;20192;-69
2021/04/03 10:26:47;;;;;;;17.17;11.70;;;;;;;20.05;44.47;94397.50;5049166;28;20291;-69
2021/04/03 10:29:14;;;;;;;17.27;12.07;;;;;;;19.48;45.17;94398.41;5049673;28;20443;-70
2021/04/03 10:31:40;;;;;;;14.03;12.40;;;;;;;19.39;45.41;94395.03;5049299;28;20203;-68
2021/04/03 10:34:06;;;;;;;16.77;12.30;;;;;;;19.30;45.74;94395.06;5049822;28;20995;-69
2021/04/03 10:36:33;;;;;;;14.70;11.43;;;;;;;19.36;45.91;94385.06;5068794;28;20529;-71
2021/04/03 10:38:59;;;;;;;13.43;10.97;;;;;;;19.21;46.35;94397.75;5069484;28;20434;-72
2021/04/03 10:41:26;;;;;;;19.07;12.47;;;;;;;19.05;45.77;94402.06;5048903;28;20450;-75
2021/04/03 10:43:52;;;;;;;14.97;10.57;;;;;;;18.79;46.62;94404.06;5049260;28;20439;-71
2021/04/03 10:46:19;;;;;;;14.80;11.43;;;;;;;18.73;48.12;94394.69;5049408;28;20482;-74
2021/04/03 10:48:45;;;;;;;15.33;12.13;;;;;;;18.75;48.51;94397.81;5049346;28;20447;-73
2021/04/03 10:51:11;;;;;;;15.23;10.97;;;;;;;18.76;47.60;94385.31;5048832;28;20534;-74
2021/04/03 10:53:38;;;;;;;14.00;11.17;;;;;;;18.63;45.78;94379.09;5049796;28;20985;-73
2021/04/03 10:56:05;;;;;;;94.90;84.40;;;;;;;18.70;47.49;94394.56;5056976;28;20477;-77
2021/04/03 10:58:31;;;;;;;24.97;18.43;;;;;;;18.05;49.52;94410.72;5056459;28;20435;-73
2021/04/03 11:00:58;;;;;;;22.83;17.50;;;;;;;17.76;50.79;94439.72;5062173;28;21001;-73
2021/04/03 11:03:25;;;;;;;21.17;16.97;;;;;;;17.27;52.87;94450.66;5062812;28;20619;-71
2021/04/03 11:05:51;;;;;;;24.97;19.17;;;;;;;16.86;58.14;94453.63;5076663;28;20477;-72
2021/04/03 11:08:21;;;;;;;28.30;22.00;;;;;;;16.68;61.17;94441.38;5068681;28;20504;-75
2021/04/03 11:10:48;;;;;;;23.43;18.70;;;;;;;16.21;62.60;94448.06;5060255;28;20440;-72
2021/04/03 11:13:14;;;;;;;19.07;15.90;;;;;;;15.69;62.31;94456.66;5063243;28;20958;-71
2021/04/03 11:15:44;;;;;;;20.87;14.87;;;;;;;15.54;61.61;94470.97;5064941;28;20445;-76
2021/04/03 11:18:11;;;;;;;15.00;12.13;;;;;;;15.38;61.58;94466.28;5061571;28;20447;-68
2021/04/03 11:20:39;;;;;;;15.80;10.00;;;;;;;15.14;61.40;94456.69;5063243;28;20809;-78
2021/04/03 11:23:05;;;;;;;11.23;9.27;;;;;;;14.93;61.66;94458.16;5061619;28;20421;-74
2021/04/03 11:25:33;;;;;;;10.80;9.40;;;;;;;15.15;60.60;94466.19;5061341;28;20466;-73
2021/04/03 11:28:00;;;;;;;10.43;8.57;;;;;;;15.03;58.41;94460.63;5063066;28;20462;-68
2021/04/03 11:30:27;;;;;;;12.73;9.30;;;;;;;15.03;59.07;94450.06;5062836;28;20496;-77